MST,Max TemperatureF,Mean TemperatureF,Min TemperatureF,Max Dew PointF,MeanDew PointF,Min DewpointF,Max Humidity, Mean Humidity, Min Humidity, Max Sea Level PressureIn, Mean Sea Level PressureIn, Min Sea Level PressureIn, Max VisibilityMiles, Mean VisibilityMiles, Min VisibilityMiles, Max Wind SpeedMPH, Mean Wind SpeedMPH, Max Gust SpeedMPH,PrecipitationIn, CloudCover, Events, WindDirDegrees
2014-4-1,83,66,48,20,4,-19,29,16,2,29.88,29.83,29.77,10,10,10,26,12,35,0.00,0,,209
2014-4-2,70,61,52,32,24,7,39,25,11,29.90,29.83,29.78,10,10,10,24,11,31,0.00,0,,278
2014-4-3,70,58,45,26,18,12,41,26,11,30.08,29.97,29.91,10,10,10,15,6,21,0.00,1,,293
2014-4-4,79,61,43,18,13,5,36,22,7,29.96,29.85,29.76,10,10,10,21,6,28,0.00,0,,189
2014-4-5,73,62,50,19,16,11,22,16,10,29.88,29.80,29.75,10,10,10,20,6,26,0.00,3,,229
2014-4-6,76,62,47,25,17,11,39,24,9,29.96,29.91,29.87,10,10,10,22,7,32,0.00,0,,267
2014-4-7,85,66,47,19,15,8,29,18,6,30.14,30.03,29.95,10,10,10,16,7,26,0.00,0,,253
2014-4-8,91,72,53,19,10,-9,26,14,2,30.12,30.04,29.97,10,10,10,16,7,18,0.00,0,,163
2014-4-9,92,74,55,13,7,-6,18,10,2,30.03,29.96,29.89,10,10,10,15,7,20,0.00,0,,173
2014-4-10,95,77,58,11,-1,-38,15,8,0,30.07,29.91,29.81,10,10,10,17,7,27,0.00,0,,176
2014-4-11,94,79,64,19,13,7,13,9,5,30.05,29.84,29.73,10,10,1,20,8,30,0.00,0,,193
2014-4-12,84,74,63,19,13,3,15,11,6,29.78,29.72,29.64,10,10,10,25,12,35,0.00,0,,213
2014-4-13,86,70,54,35,18,12,25,16,7,29.84,29.78,29.71,10,10,10,22,10,32,0.00,0,,222
2014-4-14,83,68,53,28,13,-3,32,18,4,30.08,29.93,29.84,10,10,2,14,6,17,0.00,0,,296
2014-4-15,91,70,49,13,8,1,17,10,3,29.95,29.81,29.69,10,10,9,25,8,33,0.00,0,,155
2014-4-16,89,72,54,20,7,-3,15,10,4,29.79,29.72,29.65,10,10,10,18,8,25,0.00,0,,210
2014-4-17,91,75,59,30,20,13,21,14,6,30.00,29.82,29.74,10,10,10,12,6,19,0.00,0,,185
2014-4-18,77,70,63,45,37,25,45,32,18,29.98,29.86,29.80,10,10,10,26,8,32,0.00,1,,135
2014-4-19,82,71,60,46,41,31,55,36,17,29.98,29.90,29.84,10,10,10,22,8,31,T,2,,254
2014-4-20,87,72,56,43,37,32,57,36,15,30.11,29.96,29.90,10,10,10,15,6,25,0.00,0,,109
2014-4-21,92,76,59,35,31,26,37,24,10,30.01,29.92,29.81,10,10,10,13,5,17,0.00,0,,195
2014-4-22,94,79,64,37,29,19,34,21,7,29.86,29.77,29.68,10,10,10,23,8,32,0.00,0,,197
2014-4-23,86,74,62,31,21,10,28,17,6,29.88,29.76,29.71,10,10,10,23,10,31,0.00,0,,229
2014-4-24,89,71,53,18,13,8,24,15,5,29.99,29.86,29.79,10,10,6,21,6,26,0.00,0,,201
2014-4-25,90,74,58,27,18,7,30,18,5,29.85,29.76,29.68,10,10,10,26,12,32,0.00,0,,189
2014-4-26,72,64,55,47,31,19,48,31,13,29.85,29.72,29.61,10,10,10,31,13,43,0.02,2,Rain,232
2014-4-27,76,63,49,39,29,22,66,40,14,29.97,29.85,29.78,10,10,10,16,7,21,0.00,0,,258
2014-4-28,82,67,51,28,25,21,38,25,11,29.97,29.89,29.83,10,10,10,20,7,30,0.00,0,,303
2014-4-29,83,69,54,25,5,-18,30,16,2,30.00,29.90,29.83,10,10,10,24,10,32,0.00,0,,335
2014-4-30,83,67,50,11,5,1,14,10,5,30.03,29.87,29.78,10,10,10,16,6,24,0.00,2,,327